Time;durP1;ratioP1;P1;durP2;ratioP2;P2;SDS_P1;SDS_P2;PMS_P1;PMS_P2;Temp;Humidity;BMP_temperature;BMP_pressure;BME280_temperature;BME280_humidity;BME280_pressure;Samples;Min_cycle;Max_cycle;Signal;HPM_P1;HPM_P2
2024/03/15 00:00:12;;;;;;;;;;;;;;;;;;5119287;28;20239;-45
2024/03/15 00:02:38;;;;;;;;;;;;;;;;;;5119210;28;19915;-45
2024/03/15 00:05:04;;;;;;;;;;;;;;;;;;5119113;28;20414;-45
2024/03/15 00:07:29;;;;;;;;;;;;;;;;;;5100521;28;20481;-45
2024/03/15 00:09:55;;;;;;;;;;;;;;;;;;5118916;28;19912;-45
2024/03/15 00:12:21;;;;;;;;;;;;;;;;;;5118980;28;20295;-45
2024/03/15 00:14:47;;;;;;;;;;;;;;;;;;5119110;28;19915;-45
2024/03/15 00:17:13;;;;;;;;;;;;;;;;;;5118656;28;20571;-45
2024/03/15 00:19:40;;;;;;;;;;;;;;;;;;5118691;28;19978;-45
2024/03/15 00:22:09;;;;;;;;;;;;;;;;;;5118790;28;19907;-45
2024/03/15 00:24:34;;;;;;;;;;;;;;;;;;5118998;28;19908;-45
2024/03/15 00:27:00;;;;;;;;;;;;;;;;;;5118642;28;19947;-45
2024/03/15 00:29:27;;;;;;;;;;;;;;;;;;5118749;28;19908;-45
2024/03/15 00:31:56;;;;;;;;;;;;;;;;;;5118818;28;19956;-45
2024/03/15 00:34:22;;;;;;;;;;;;;;;;;;5118459;28;20394;-45
2024/03/15 00:36:48;;;;;;;;;;;;;;;;;;5118705;28;19908;-45
2024/03/15 00:39:15;;;;;;;;;;;;;;;;;;5118660;28;19947;-45
2024/03/15 00:41:42;;;;;;;;;;;;;;;;;;5118160;28;20485;-45
2024/03/15 00:44:07;;;;;;;;;;;;;;;;;;5118583;28;19923;-45
2024/03/15 00:46:33;;;;;;;;;;;;;;;;;;5118190;28;19911;-45
2024/03/15 00:48:59;;;;;;;;;;;;;;;;;;5118225;28;19908;-45
2024/03/15 00:51:25;;;;;;;;;;;;;;;;;;5118461;28;19915;-45
2024/03/15 00:53:51;;;;;;;;;;;;;;;;;;5118494;28;20355;-45
2024/03/15 00:56:17;;;;;;;;;;;;;;;;;;5118611;28;19908;-45
2024/03/15 00:58:43;;;;;;;;;;;;;;;;;;5118162;28;19914;-45
2024/03/15 01:01:10;;;;;;;;;;;;;;;;;;5118419;28;19954;-45
2024/03/15 01:03:36;;;;;;;;;;;;;;;;;;5118350;28;19908;-45
2024/03/15 01:06:02;;;;;;;;;;;;;;;;;;5118171;28;19930;-45
2024/03/15 01:08:28;;;;;;;;;;;;;;;;;;5118415;28;19951;-45
2024/03/15 01:10:54;;;;;;;;;;;;;;;;;;5118288;28;19907;-45
2024/03/15 01:13:20;;;;;;;;;;;;;;;;;;5118301;28;19956;-45
2024/03/15 01:15:46;;;;;;;;;;;;;;;;;;5118246;28;19908;-45
2024/03/15 01:18:13;;;;;;;;;;;;;;;;;;5099334;28;21348;-45
2024/03/15 01:20:39;;;;;;;;;;;;;;;;;;5119138;28;19917;-45
2024/03/15 01:23:05;;;;;;;;;;;;;;;;;;5121870;28;20280;-45
2024/03/15 01:25:31;;;;;;;;;;;;;;;;;;5121952;28;19915;-45
2024/03/15 01:27:57;;;;;;;;;;;;;;;;;;5122196;28;19917;-45
2024/03/15 01:30:23;;;;;;;;;;;;;;;;;;5122072;28;19914;-45
2024/03/15 01:32:49;;;;;;;;;;;;;;;;;;5121947;28;20002;-45
2024/03/15 01:35:16;;;;;;;;;;;;;;;;;;5122214;28;19943;-45
2024/03/15 01:37:42;;;;;;;;;;;;;;;;;;5121739;28;19912;-45
2024/03/15 01:40:09;;;;;;;;;;;;;;;;;;5122119;28;19918;-45
2024/03/15 01:42:35;;;;;;;;;;;;;;;;;;5121831;28;20313;-45
2024/03/15 01:45:01;;;;;;;;;;;;;;;;;;5121752;28;19903;-45
2024/03/15 01:47:27;;;;;;;;;;;;;;;;;;5121796;28;19908;-45
2024/03/15 01:49:56;;;;;;;;;;;;;;;;;;5121505;28;19910;-45
2024/03/15 01:52:22;;;;;;;;;;;;;;;;;;5121884;28;19912;-44
2024/03/15 01:54:48;;;;;;;;;;;;;;;;;;5121637;28;19960;-45
2024/03/15 01:57:14;;;;;;;;;;;;;;;;;;5121869;28;19908;-45
2024/03/15 01:59:41;;;;;;;;;;;;;;;;;;5121479;28;19939;-45
2024/03/15 02:02:09;;;;;;;;;;;;;;;;;;5121335;28;19908;-45
2024/03/15 02:04:35;;;;;;;;;;;;;;;;;;5121018;28;19908;-45
2024/03/15 02:07:01;;;;;;;;;;;;;;;;;;5121012;28;19908;-45
2024/03/15 02:09:28;;;;;;;;;;;;;;;;;;5121370;28;19914;-45
2024/03/15 02:11:54;;;;;;;;;;;;;;;;;;5121153;28;19908;-45
2024/03/15 02:14:20;;;;;;;;;;;;;;;;;;5121070;28;19994;-45
2024/03/15 02:16:46;;;;;;;;;;;;;;;;;;5102624;28;20420;-45
2024/03/15 02:19:12;;;;;;;;;;;;;;;;;;5120949;28;19911;-45
2024/03/15 02:21:37;;;;;;;;;;;;;;;;;;5121068;28;19957;-45
2024/03/15 02:24:05;;;;;;;;;;;;;;;;;;5120887;28;19908;-45
2024/03/15 02:26:32;;;;;;;;;;;;;;;;;;5121081;28;19908;-45
2024/03/15 02:28:58;;;;;;;;;;;;;;;;;;5120967;28;19929;-45
2024/03/15 02:31:24;;;;;;;;;;;;;;;;;;5120814;28;19919;-45
2024/03/15 02:33:50;;;;;;;;;;;;;;;;;;5120268;28;19907;-45
2024/03/15 02:36:16;;;;;;;;;;;;;;;;;;5120955;28;19915;-45
2024/03/15 02:38:42;;;;;;;;;;;;;;;;;;5120818;28;19918;-45
2024/03/15 02:41:13;;;;;;;;;;;;;;;;;;5120928;28;19912;-45
2024/03/15 02:43:39;;;;;;;;;;;;;;;;;;5120530;28;19908;-45
2024/03/15 02:46:05;;;;;;;;;;;;;;;;;;5120581;28;19907;-45
2024/03/15 02:48:32;;;;;;;;;;;;;;;;;;5120455;28;19908;-45
2024/03/15 02:50:58;;;;;;;;;;;;;;;;;;5120109;28;20367;-45
2024/03/15 02:53:24;;;;;;;;;;;;;;;;;;5120544;28;19930;-45
2024/03/15 02:55:50;;;;;;;;;;;;;;;;;;5123467;27;19912;-45
2024/03/15 02:58:16;;;;;;;;;;;;;;;;;;5141042;27;19968;-45
2024/03/15 03:00:42;;;;;;;;;;;;;;;;;;5140728;27;19915;-45
2024/03/15 03:03:10;;;;;;;;;;;;;;;;;;5140380;27;19933;-45
2024/03/15 03:05:36;;;;;;;;;;;;;;;;;;5140317;27;19930;-45
2024/03/15 03:08:03;;;;;;;;;;;;;;;;;;5140628;27;19911;-45
2024/03/15 03:10:30;;;;;;;;;;;;;;;;;;5140765;27;19943;-45
2024/03/15 03:12:56;;;;;;;;;;;;;;;;;;5140719;27;20355;-44
2024/03/15 03:15:22;;;;;;;;;;;;;;;;;;5140436;27;19986;-45
2024/03/15 03:17:48;;;;;;;;;;;;;;;;;;5140721;27;19946;-45
2024/03/15 03:20:20;;;;;;;;;;;;;;;;;;5140469;27;19934;-45
2024/03/15 03:22:50;;;;;;;;;;;;;;;;;;5140521;27;19947;-45
2024/03/15 03:25:16;;;;;;;;;;;;;;;;;;5140782;27;19911;-45
2024/03/15 03:27:42;;;;;;;;;;;;;;;;;;5140311;27;19918;-46
2024/03/15 03:30:08;;;;;;;;;;;;;;;;;;5140605;27;19998;-45
2024/03/15 03:32:36;;;;;;;;;;;;;;;;;;5140356;27;19915;-45
2024/03/15 03:35:04;;;;;;;;;;;;;;;;;;5140265;27;19918;-45
2024/03/15 03:37:30;;;;;;;;;;;;;;;;;;5140098;27;19908;-45
2024/03/15 03:39:56;;;;;;;;;;;;;;;;;;5140275;27;19912;-45
2024/03/15 03:42:22;;;;;;;;;;;;;;;;;;5140127;27;19979;-45
2024/03/15 03:44:49;;;;;;;;;;;;;;;;;;5139668;27;19910;-45
2024/03/15 03:47:15;;;;;;;;;;;;;;;;;;5139879;27;20251;-45
2024/03/15 03:49:41;;;;;;;;;;;;;;;;;;5139961;27;19904;-45
2024/03/15 03:52:07;;;;;;;;;;;;;;;;;;5140229;27;20006;-45
2024/03/15 03:54:33;;;;;;;;;;;;;;;;;;5139708;27;19903;-45
2024/03/15 03:56:59;;;;;;;;;;;;;;;;;;5139712;27;19907;-45
2024/03/15 03:59:28;;;;;;;;;;;;;;;;;;5139566;27;20354;-45
2024/03/15 04:01:54;;;;;;;;;;;;;;;;;;5139387;27;19919;-45
2024/03/15 04:04:23;;;;;;;;;;;;;;;;;;5139542;27;19914;-45
2024/03/15 04:06:51;;;;;;;;;;;;;;;;;;5139331;27;19997;-45
2024/03/15 04:09:16;;;;;;;;;;;;;;;;;;5139511;27;19935;-45
2024/03/15 04:11:42;;;;;;;;;;;;;;;;;;5139795;27;19918;-45
2024/03/15 04:14:08;;;;;;;;;;;;;;;;;;5139180;27;19908;-45
2024/03/15 04:16:34;;;;;;;;;;;;;;;;;;5140033;27;19914;-45
2024/03/15 04:19:03;;;;;;;;;;;;;;;;;;5139410;27;20436;-45
2024/03/15 04:21:28;;;;;;;;;;;;;;;;;;5139812;27;20004;-45
2024/03/15 04:23:55;;;;;;;;;;;;;;;;;;5139416;27;19909;-45
2024/03/15 04:26:22;;;;;;;;;;;;;;;;;;5139610;27;19915;-45
2024/03/15 04:28:49;;;;;;;;;;;;;;;;;;5139419;27;19952;-45
2024/03/15 04:31:16;;;;;;;;;;;;;;;;;;5139470;27;19914;-45
2024/03/15 04:33:42;;;;;;;;;;;;;;;;;;5139041;27;19912;-45
2024/03/15 04:36:08;;;;;;;;;;;;;;;;;;5139332;27;19955;-45
2024/03/15 04:38:34;;;;;;;;;;;;;;;;;;5139252;27;20423;-45
2024/03/15 04:41:09;;;;;;;;;;;;;;;;;;5139302;27;19911;-45
2024/03/15 04:43:35;;;;;;;;;;;;;;;;;;5138725;27;19908;-45
2024/03/15 04:46:01;;;;;;;;;;;;;;;;;;5139145;28;20270;-45
2024/03/15 04:48:27;;;;;;;;;;;;;;;;;;5139190;28;19951;-45
2024/03/15 04:50:53;;;;;;;;;;;;;;;;;;5139066;28;19930;-45
2024/03/15 04:53:19;;;;;;;;;;;;;;;;;;5139407;28;19919;-45
2024/03/15 04:55:45;;;;;;;;;;;;;;;;;;5140638;27;19907;-45
2024/03/15 04:58:11;;;;;;;;;;;;;;;;;;5142962;27;20285;-45
2024/03/15 05:00:37;;;;;;;;;;;;;;;;;;5143163;27;19911;-45
2024/03/15 05:03:03;;;;;;;;;;;;;;;;;;5143551;27;19956;-45
2024/03/15 05:05:29;;;;;;;;;;;;;;;;;;5142789;27;19920;-45
2024/03/15 05:07:55;;;;;;;;;;;;;;;;;;5142936;27;19914;-45
2024/03/15 05:10:21;;;;;;;;;;;;;;;;;;5143287;27;20331;-46
2024/03/15 05:12:50;;;;;;;;;;;;;;;;;;5143325;27;20307;-45
2024/03/15 05:15:16;;;;;;;;;;;;;;;;;;5143070;27;20414;-45
2024/03/15 05:17:42;;;;;;;;;;;;;;;;;;5143246;27;19908;-45
2024/03/15 05:20:15;;;;;;;;;;;;;;;;;;5142486;27;19912;-45
2024/03/15 05:22:43;;;;;;;;;;;;;;;;;;5142764;27;19952;-45
2024/03/15 05:25:13;;;;;;;;;;;;;;;;;;5142429;27;20410;-45
2024/03/15 05:27:39;;;;;;;;;;;;;;;;;;5142756;27;19995;-45
2024/03/15 05:30:06;;;;;;;;;;;;;;;;;;5142636;27;19907;-45
2024/03/15 05:32:33;;;;;;;;;;;;;;;;;;5141723;27;19989;-45
2024/03/15 05:35:02;;;;;;;;;;;;;;;;;;5122602;27;19915;-45
2024/03/15 05:37:28;;;;;;;;;;;;;;;;;;5142794;27;19994;-45
2024/03/15 05:39:54;;;;;;;;;;;;;;;;;;5141742;27;19912;-45
2024/03/15 05:42:20;;;;;;;;;;;;;;;;;;5141584;27;19918;-45
2024/03/15 05:44:46;;;;;;;;;;;;;;;;;;5142568;27;19915;-44
2024/03/15 05:47:14;;;;;;;;;;;;;;;;;;5142101;27;19911;-45
2024/03/15 05:49:40;;;;;;;;;;;;;;;;;;5142567;27;19908;-45
2024/03/15 05:52:14;;;;;;;;;;;;;;;;;;5142226;27;19908;-46
2024/03/15 05:54:40;;;;;;;;;;;;;;;;;;5142237;27;19908;-45
2024/03/15 05:57:06;;;;;;;;;;;;;;;;;;5142320;27;19907;-45
2024/03/15 05:59:32;;;;;;;;;;;;;;;;;;5141834;27;19919;-45
2024/03/15 06:01:58;;;;;;;;;;;;;;;;;;5141943;27;19912;-45
2024/03/15 06:04:24;;;;;;;;;;;;;;;;;;5141800;27;20002;-45
2024/03/15 06:06:50;;;;;;;;;;;;;;;;;;5141213;27;19963;-45
2024/03/15 06:09:16;;;;;;;;;;;;;;;;;;5142179;27;19907;-45
2024/03/15 06:11:42;;;;;;;;;;;;;;;;;;5141904;27;19911;-45
2024/03/15 06:14:11;;;;;;;;;;;;;;;;;;5141642;27;20370;-45
2024/03/15 06:16:37;;;;;;;;;;;;;;;;;;5141735;27;19957;-46
2024/03/15 06:19:04;;;;;;;;;;;;;;;;;;5141764;27;19994;-45
2024/03/15 06:21:31;;;;;;;;;;;;;;;;;;5141174;27;19957;-45
2024/03/15 06:23:57;;;;;;;;;;;;;;;;;;5141666;27;19953;-45
2024/03/15 06:26:23;;;;;;;;;;;;;;;;;;5141539;27;19911;-45
2024/03/15 06:28:49;;;;;;;;;;;;;;;;;;5141312;27;19908;-45
2024/03/15 06:31:15;;;;;;;;;;;;;;;;;;5141144;27;19907;-44
2024/03/15 06:33:43;;;;;;;;;;;;;;;;;;5141273;27;19908;-45
2024/03/15 06:36:16;;;;;;;;;;;;;;;;;;5141319;27;19915;-45
2024/03/15 06:41:13;;;;;;;;;;;;;;;;;;5141725;27;19937;-45
2024/03/15 06:43:41;;;;;;;;;;;;;;;;;;5141127;27;20003;-45
2024/03/15 06:46:20;;;;;;;;;;;;;;;;;;5141372;27;19907;-45
2024/03/15 06:48:59;;;;;;;;;;;;;;;;;;5140910;27;19908;-45
2024/03/15 06:54:11;;;;;;;;;;;;;;;;;;5140616;27;19953;-45
2024/03/15 06:56:37;;;;;;;;;;;;;;;;;;5140940;27;19986;-45
2024/03/15 06:59:03;;;;;;;;;;;;;;;;;;5140775;27;19907;-45
2024/03/15 07:01:29;;;;;;;;;;;;;;;;;;5140507;27;19919;-45
2024/03/15 07:03:55;;;;;;;;;;;;;;;;;;5140905;27;20325;-45
2024/03/15 07:06:21;;;;;;;;;;;;;;;;;;5140605;27;19927;-45
2024/03/15 07:08:49;;;;;;;;;;;;;;;;;;5141267;27;19907;-45
2024/03/15 07:11:15;;;;;;;;;;;;;;;;;;5140385;27;20461;-45
2024/03/15 07:13:41;;;;;;;;;;;;;;;;;;5140746;27;19908;-44
2024/03/15 07:16:07;;;;;;;;;;;;;;;;;;5140966;27;19929;-45
2024/03/15 07:18:33;;;;;;;;;;;;;;;;;;5139263;27;19994;-45
2024/03/15 07:20:59;;;;;;;;;;;;;;;;;;5140547;27;19958;-45
2024/03/15 07:23:31;;;;;;;;;;;;;;;;;;5140412;27;19915;-45
2024/03/15 07:25:57;;;;;;;;;;;;;;;;;;5140319;27;19928;-45
2024/03/15 07:28:23;;;;;;;;;;;;;;;;;;5140603;27;20346;-45
2024/03/15 07:30:49;;;;;;;;;;;;;;;;;;5140249;27;19908;-45
2024/03/15 07:33:17;;;;;;;;;;;;;;;;;;5139771;27;19914;-45
2024/03/15 07:35:43;;;;;;;;;;;;;;;;;;5140114;27;19908;-45
2024/03/15 07:38:10;;;;;;;;;;;;;;;;;;5140175;27;19914;-45
2024/03/15 07:40:36;;;;;;;;;;;;;;;;;;5139891;27;19911;-45
2024/03/15 07:43:02;;;;;;;;;;;;;;;;;;5139941;27;19949;-45
2024/03/15 07:45:28;;;;;;;;;;;;;;;;;;5140214;27;19993;-45
2024/03/15 07:47:54;;;;;;;;;;;;;;;;;;5139977;27;19919;-45
2024/03/15 07:50:20;;;;;;;;;;;;;;;;;;5140070;27;19914;-45
2024/03/15 07:52:46;;;;;;;;;;;;;;;;;;5139650;27;19908;-45
2024/03/15 07:55:12;;;;;;;;;;;;;;;;;;5140161;27;20365;-45
2024/03/15 07:57:38;;;;;;;;;;;;;;;;;;5139616;27;19908;-45
2024/03/15 08:00:06;;;;;;;;;;;;;;;;;;5139709;27;19963;-45
2024/03/15 08:02:32;;;;;;;;;;;;;;;;;;5139649;27;19907;-45
2024/03/15 08:04:58;;;;;;;;;;;;;;;;;;5139479;27;20294;-29
2024/03/15 08:07:24;;;;;;;;;;;;;;;;;;5139463;27;19911;-30
2024/03/15 08:09:50;;;;;;;;;;;;;;;;;;5139589;27;19907;-29
2024/03/15 08:12:16;;;;;;;;;;;;;;;;;;5139524;27;19908;-29
2024/03/15 08:14:42;;;;;;;;;;;;;;;;;;5139130;27;20018;-29
2024/03/15 08:17:08;;;;;;;;;;;;;;;;;;5139459;27;19914;-29
2024/03/15 08:19:34;;;;;;;;;;;;;;;;;;5139077;27;19946;-31
2024/03/15 08:22:01;;;;;;;;;;;;;;;;;;5139481;27;20265;-28
2024/03/15 08:24:27;;;;;;;;;;;;;;;;;;5138791;27;19908;-31
2024/03/15 08:26:53;;;;;;;;;;;;;;;;;;5139089;27;19912;-30
2024/03/15 08:29:21;;;;;;;;;;;;;;;;;;5139092;27;19958;-29
2024/03/15 08:31:50;;;;;;;;;;;;;;;;;;5138932;27;19930;-28
2024/03/15 08:34:18;;;;;;;;;;;;;;;;;;5139070;27;20002;-31
2024/03/15 08:36:44;;;;;;;;;;;;;;;;;;5138778;27;20393;-30
2024/03/15 08:39:12;;;;;;;;;;;;;;;;;;5120544;27;20263;-29
2024/03/15 08:41:38;;;;;;;;;;;;;;;;;;5139382;27;19955;-30
2024/03/15 08:44:04;;;;;;;;;;;;;;;;;;5138837;27;20360;-29
2024/03/15 08:46:30;;;;;;;;;;;;;;;;;;5139077;28;19951;-31
2024/03/15 08:48:56;;;;;;;;;;;;;;;;;;5138874;28;19908;-30
2024/03/15 08:51:23;;;;;;;;;;;;;;;;;;5138659;28;20011;-31
2024/03/15 08:53:49;;;;;;;;;;;;;;;;;;5138966;28;19915;-30
2024/03/15 08:56:18;;;;;;;;;;;;;;;;;;5139273;28;19914;-29
2024/03/15 08:58:48;;;;;;;;;;;;;;;;;;5138795;28;20349;-28
2024/03/15 09:01:13;;;;;;;;;;;;;;;;;;5138875;28;20266;-28
2024/03/15 09:03:39;;;;;;;;;;;;;;;;;;5138924;28;19935;-30
2024/03/15 09:06:08;;;;;;;;;;;;;;;;;;5138736;28;19920;-28
2024/03/15 09:08:34;;;;;;;;;;;;;;;;;;5139043;28;20269;-29
2024/03/15 09:11:01;;;;;;;;;;;;;;;;;;5138491;28;19972;-29
2024/03/15 09:13:27;;;;;;;;;;;;;;;;;;5138700;28;19912;-28
2024/03/15 09:15:55;;;;;;;;;;;;;;;;;;5139143;28;20006;-32
2024/03/15 09:18:21;;;;;;;;;;;;;;;;;;5138574;28;20410;-30
2024/03/15 09:20:47;;;;;;;;;;;;;;;;;;5138335;28;20377;-28
2024/03/15 09:23:14;;;;;;;;;;;;;;;;;;5138616;28;20020;-28
2024/03/15 09:25:42;;;;;;;;;;;;;;;;;;5138637;28;19998;-29
2024/03/15 09:28:09;;;;;;;;;;;;;;;;;;5138632;28;19950;-28
2024/03/15 09:30:53;;;;;;;;;;;;;;;;;;5138244;28;20357;-29
2024/03/15 09:33:19;;;;;;;;;;;;;;;;;;5138535;28;19908;-30
2024/03/15 09:35:46;;;;;;;;;;;;;;;;;;5138661;28;19907;-29
2024/03/15 09:38:12;;;;;;;;;;;;;;;;;;5138478;28;19911;-29
2024/03/15 09:40:38;;;;;;;;;;;;;;;;;;5138530;27;19964;-29
2024/03/15 09:43:04;;;;;;;;;;;;;;;;;;5142145;27;19914;-29
2024/03/15 09:45:30;;;;;;;;;;;;;;;;;;5142138;27;19911;-28
2024/03/15 09:47:56;;;;;;;;;;;;;;;;;;5142370;27;19908;-30
2024/03/15 09:50:23;;;;;;;;;;;;;;;;;;5142473;27;19910;-28
2024/03/15 09:52:50;;;;;;;;;;;;;;;;;;5141993;27;19908;-28
2024/03/15 09:55:22;;;;;;;;;;;;;;;;;;5142135;27;19946;-31
2024/03/15 09:57:51;;;;;;;;;;;;;;;;;;5142375;27;20303;-29
2024/03/15 10:00:17;;;;;;;;;;;;;;;;;;5142059;27;19912;-29
2024/03/15 10:02:47;;;;;;;;;;;;;;;;;;5141988;27;19912;-29
2024/03/15 10:05:13;;;;;;;;;;;;;;;;;;5141302;27;20317;-28
2024/03/15 10:07:39;;;;;;;;;;;;;;;;;;5142043;27;19954;-28
2024/03/15 10:10:05;;;;;;;;;;;;;;;;;;5141569;27;20330;-29
2024/03/15 10:12:33;;;;;;;;;;;;;;;;;;5141869;27;19913;-30
2024/03/15 10:14:59;;;;;;;;;;;;;;;;;;5141465;27;20259;-29
2024/03/15 10:17:25;;;;;;;;;;;;;;;;;;5141788;27;19933;-29
2024/03/15 10:19:51;;;;;;;;;;;;;;;;;;5141480;27;19907;-29
2024/03/15 10:22:17;;;;;;;;;;;;;;;;;;5141701;27;19914;-28
2024/03/15 10:24:43;;;;;;;;;;;;;;;;;;5141350;27;19911;-28
2024/03/15 10:27:09;;;;;;;;;;;;;;;;;;5141757;27;19950;-29
2024/03/15 10:29:35;;;;;;;;;;;;;;;;;;5141590;27;19908;-29
2024/03/15 10:32:01;;;;;;;;;;;;;;;;;;5141867;27;19928;-29
2024/03/15 10:34:27;;;;;;;;;;;;;;;;;;5141572;27;19974;-29
2024/03/15 10:36:53;;;;;;;;;;;;;;;;;;5141359;27;20442;-29
2024/03/15 10:39:20;;;;;;;;;;;;;;;;;;5140966;27;19911;-29
2024/03/15 10:41:46;;;;;;;;;;;;;;;;;;5141000;27;19967;-29
2024/03/15 10:44:12;;;;;;;;;;;;;;;;;;5141534;27;19912;-28
2024/03/15 10:46:38;;;;;;;;;;;;;;;;;;5141186;27;19908;-30
2024/03/15 10:49:04;;;;;;;;;;;;;;;;;;5141456;27;19946;-28
2024/03/15 10:51:31;;;;;;;;;;;;;;;;;;5140860;27;19908;-28
2024/03/15 10:53:56;;;;;;;;;;;;;;;;;;5139453;27;19966;-29
2024/03/15 10:56:23;;;;;;;;;;;;;;;;;;5140736;27;19919;-29
2024/03/15 10:58:49;;;;;;;;;;;;;;;;;;5141068;27;19910;-29
2024/03/15 11:01:15;;;;;;;;;;;;;;;;;;5140333;27;19978;-28
2024/03/15 11:03:42;;;;;;;;;;;;;;;;;;5140797;27;20537;-29
2024/03/15 11:06:09;;;;;;;;;;;;;;;;;;5140286;27;19919;-32
2024/03/15 11:08:35;;;;;;;;;;;;;;;;;;5140557;27;20362;-28
2024/03/15 11:11:01;;;;;;;;;;;;;;;;;;5122038;27;19930;-29
2024/03/15 11:13:27;;;;;;;;;;;;;;;;;;5140719;27;19907;-29
2024/03/15 11:15:53;;;;;;;;;;;;;;;;;;5140937;27;20056;-29
2024/03/15 11:18:19;;;;;;;;;;;;;;;;;;5140619;27;19907;-28
2024/03/15 11:20:45;;;;;;;;;;;;;;;;;;5140381;27;19933;-29
2024/03/15 11:23:11;;;;;;;;;;;;;;;;;;5140378;27;19907;-30
2024/03/15 11:25:38;;;;;;;;;;;;;;;;;;5140527;27;19914;-29
2024/03/15 11:28:04;;;;;;;;;;;;;;;;;;5140456;27;19908;-29
2024/03/15 11:30:31;;;;;;;;;;;;;;;;;;5140492;27;19914;-29
2024/03/15 11:32:57;;;;;;;;;;;;;;;;;;5140222;27;19908;-29
2024/03/15 11:35:23;;;;;;;;;;;;;;;;;;5140514;27;19943;-28
2024/03/15 11:37:55;;;;;;;;;;;;;;;;;;5140100;27;19908;-29
2024/03/15 11:40:22;;;;;;;;;;;;;;;;;;5140141;27;19911;-31
2024/03/15 11:42:49;;;;;;;;;;;;;;;;;;5140060;27;19907;-30
2024/03/15 11:45:15;;;;;;;;;;;;;;;;;;5121470;27;20400;-28
2024/03/15 11:47:41;;;;;;;;;;;;;;;;;;5140330;27;19907;-29
2024/03/15 11:50:07;;;;;;;;;;;;;;;;;;5139780;27;19907;-29
2024/03/15 11:52:33;;;;;;;;;;;;;;;;;;5140228;27;19912;-29
2024/03/15 11:54:59;;;;;;;;;;;;;;;;;;5139859;27;19911;-31
2024/03/15 11:57:26;;;;;;;;;;;;;;;;;;5139924;27;19947;-29
2024/03/15 11:59:52;;;;;;;;;;;;;;;;;;5139542;27;20071;-32
2024/03/15 12:02:18;;;;;;;;;;;;;;;;;;5139819;27;19924;-28
2024/03/15 12:04:44;;;;;;;;;;;;;;;;;;5139039;27;19914;-28
2024/03/15 12:07:10;;;;;;;;;;;;;;;;;;5139531;27;19967;-30
2024/03/15 12:09:36;;;;;;;;;;;;;;;;;;5139823;27;19907;-29
2024/03/15 12:12:03;;;;;;;;;;;;;;;;;;5139588;27;19915;-28
2024/03/15 12:14:29;;;;;;;;;;;;;;;;;;5139496;27;19912;-29
2024/03/15 12:16:55;;;;;;;;;;;;;;;;;;5139782;27;19967;-28
2024/03/15 12:19:21;;;;;;;;;;;;;;;;;;5139530;27;19908;-30
2024/03/15 12:21:47;;;;;;;;;;;;;;;;;;5120626;27;20426;-29
2024/03/15 12:24:13;;;;;;;;;;;;;;;;;;5139230;27;19915;-28
2024/03/15 12:26:39;;;;;;;;;;;;;;;;;;5139474;27;19991;-28
2024/03/15 12:29:05;;;;;;;;;;;;;;;;;;5139350;27;19946;-28
2024/03/15 12:31:31;;;;;;;;;;;;;;;;;;5139454;27;19908;-28
2024/03/15 12:33:57;;;;;;;;;;;;;;;;;;5139311;27;20006;-29
2024/03/15 12:36:23;;;;;;;;;;;;;;;;;;5139187;27;19969;-28
2024/03/15 12:38:49;;;;;;;;;;;;;;;;;;5139224;27;20007;-29
2024/03/15 12:41:15;;;;;;;;;;;;;;;;;;5138925;27;20414;-29
2024/03/15 12:43:41;;;;;;;;;;;;;;;;;;5139264;27;19907;-30
2024/03/15 12:46:07;;;;;;;;;;;;;;;;;;5139167;27;20377;-28
2024/03/15 12:48:33;;;;;;;;;;;;;;;;;;5139155;27;20008;-32
2024/03/15 12:51:01;;;;;;;;;;;;;;;;;;5138756;28;19903;-28
2024/03/15 12:53:27;;;;;;;;;;;;;;;;;;5138839;28;19914;-29
2024/03/15 12:55:52;;;;;;;;;;;;;;;;;;5138771;28;19907;-28
2024/03/15 12:58:18;;;;;;;;;;;;;;;;;;5138995;28;19914;-30
2024/03/15 13:00:44;;;;;;;;;;;;;;;;;;5138685;28;19976;-30
2024/03/15 13:03:10;;;;;;;;;;;;;;;;;;5138768;28;20392;-28
2024/03/15 13:05:36;;;;;;;;;;;;;;;;;;5138563;28;19923;-30
2024/03/15 13:08:02;;;;;;;;;;;;;;;;;;5139004;28;20048;-32
2024/03/15 13:10:28;;;;;;;;;;;;;;;;;;5138810;28;19915;-28
2024/03/15 13:12:54;;;;;;;;;;;;;;;;;;5138594;28;20337;-30
2024/03/15 13:15:21;;;;;;;;;;;;;;;;;;5139029;27;19908;-30
2024/03/15 13:17:51;;;;;;;;;;;;;;;;;;5141658;27;19942;-29
2024/03/15 13:20:18;;;;;;;;;;;;;;;;;;5142401;27;19918;-30
2024/03/15 13:22:44;;;;;;;;;;;;;;;;;;5142353;27;20298;-28
2024/03/15 13:25:10;;;;;;;;;;;;;;;;;;5142623;27;19957;-28
2024/03/15 13:27:37;;;;;;;;;;;;;;;;;;5142651;27;19908;-28
2024/03/15 13:30:04;;;;;;;;;;;;;;;;;;5123973;27;20286;-28
2024/03/15 13:32:30;;;;;;;;;;;;;;;;;;5142494;27;19907;-29
2024/03/15 13:34:56;;;;;;;;;;;;;;;;;;5142149;27;19907;-32
2024/03/15 13:37:22;;;;;;;;;;;;;;;;;;5141952;27;19914;-29
2024/03/15 13:39:48;;;;;;;;;;;;;;;;;;5140471;27;19914;-31
2024/03/15 13:42:14;;;;;;;;;;;;;;;;;;5140222;27;20277;-28
2024/03/15 13:44:40;;;;;;;;;;;;;;;;;;5142150;27;19907;-29
2024/03/15 13:47:07;;;;;;;;;;;;;;;;;;5142237;27;19951;-28
2024/03/15 13:49:33;;;;;;;;;;;;;;;;;;5142649;27;19912;-28
2024/03/15 13:51:59;;;;;;;;;;;;;;;;;;5142078;27;19908;-29
2024/03/15 13:54:25;;;;;;;;;;;;;;;;;;5142425;27;19940;-28
2024/03/15 13:56:53;;;;;;;;;;;;;;;;;;5142020;27;20369;-28
2024/03/15 13:59:19;;;;;;;;;;;;;;;;;;5142042;27;19960;-28
2024/03/15 14:01:45;;;;;;;;;;;;;;;;;;5142353;27;19916;-28
2024/03/15 14:04:11;;;;;;;;;;;;;;;;;;5141703;27;19914;-28
2024/03/15 14:06:41;;;;;;;;;;;;;;;;;;5141605;27;20344;-29
2024/03/15 14:09:07;;;;;;;;;;;;;;;;;;5141609;27;19914;-30
2024/03/15 14:11:33;;;;;;;;;;;;;;;;;;5142260;27;19939;-30
2024/03/15 14:14:00;;;;;;;;;;;;;;;;;;5141978;27;19907;-28
2024/03/15 14:16:26;;;;;;;;;;;;;;;;;;5141476;27;19908;-28
2024/03/15 14:18:52;;;;;;;;;;;;;;;;;;5123213;27;19994;-30
2024/03/15 14:21:18;;;;;;;;;;;;;;;;;;5141669;27;20466;-31
2024/03/15 14:23:45;;;;;;;;;;;;;;;;;;5141741;27;19915;-29
2024/03/15 14:26:11;;;;;;;;;;;;;;;;;;5141965;27;19904;-29
2024/03/15 14:28:40;;;;;;;;;;;;;;;;;;5141224;27;19957;-28
2024/03/15 14:31:06;;;;;;;;;;;;;;;;;;5141575;27;19907;-29
2024/03/15 14:33:32;;;;;;;;;;;;;;;;;;5141262;27;20608;-30
2024/03/15 14:35:58;;;;;;;;;;;;;;;;;;5141638;27;20361;-29
2024/03/15 14:38:25;;;;;;;;;;;;;;;;;;5141657;27;20362;-29
2024/03/15 14:40:52;;;;;;;;;;;;;;;;;;5141350;27;19912;-29
2024/03/15 14:43:18;;;;;;;;;;;;;;;;;;5141229;27;19999;-29
2024/03/15 14:45:46;;;;;;;;;;;;;;;;;;5122507;27;19903;-31
2024/03/15 14:48:12;;;;;;;;;;;;;;;;;;5140731;27;19953;-28
2024/03/15 14:50:38;;;;;;;;;;;;;;;;;;5141185;27;19904;-28
2024/03/15 14:53:04;;;;;;;;;;;;;;;;;;5140956;27;20357;-29
2024/03/15 14:55:33;;;;;;;;;;;;;;;;;;5141369;27;19907;-29
2024/03/15 14:58:00;;;;;;;;;;;;;;;;;;5141051;27;19908;-29
2024/03/15 15:00:30;;;;;;;;;;;;;;;;;;5140731;27;19911;-29
2024/03/15 15:02:56;;;;;;;;;;;;;;;;;;5141031;27;19917;-28
2024/03/15 15:05:23;;;;;;;;;;;;;;;;;;5140493;27;19923;-32
2024/03/15 15:07:50;;;;;;;;;;;;;;;;;;5140540;27;19907;-28
2024/03/15 15:10:17;;;;;;;;;;;;;;;;;;5140789;27;19914;-29
2024/03/15 15:12:43;;;;;;;;;;;;;;;;;;5140511;27;19907;-28
2024/03/15 15:15:11;;;;;;;;;;;;;;;;;;5140871;27;19914;-30
2024/03/15 15:17:38;;;;;;;;;;;;;;;;;;5140682;27;19908;-29
2024/03/15 15:20:10;;;;;;;;;;;;;;;;;;5140094;27;19908;-29
2024/03/15 15:22:36;;;;;;;;;;;;;;;;;;5140036;27;20342;-28
2024/03/15 15:25:09;;;;;;;;;;;;;;;;;;5140057;27;19965;-28
2024/03/15 15:27:35;;;;;;;;;;;;;;;;;;5140293;27;19967;-28
2024/03/15 15:30:01;;;;;;;;;;;;;;;;;;5140286;27;19976;-30
2024/03/15 15:32:27;;;;;;;;;;;;;;;;;;5140395;27;19907;-28
2024/03/15 15:34:53;;;;;;;;;;;;;;;;;;5140560;27;19911;-29
2024/03/15 15:37:20;;;;;;;;;;;;;;;;;;5140150;27;19929;-31
2024/03/15 15:39:46;;;;;;;;;;;;;;;;;;5139873;27;19975;-29
2024/03/15 15:42:12;;;;;;;;;;;;;;;;;;5139994;27;20148;-28
2024/03/15 15:44:38;;;;;;;;;;;;;;;;;;5139833;27;19914;-31
2024/03/15 15:47:04;;;;;;;;;;;;;;;;;;5140203;27;19994;-30
2024/03/15 15:49:32;;;;;;;;;;;;;;;;;;5139725;27;19908;-28
2024/03/15 15:52:02;;;;;;;;;;;;;;;;;;5140293;27;19911;-31
2024/03/15 15:54:29;;;;;;;;;;;;;;;;;;5139753;27;20405;-28
2024/03/15 15:56:55;;;;;;;;;;;;;;;;;;5139523;27;19907;-28
2024/03/15 15:59:21;;;;;;;;;;;;;;;;;;5139602;27;19956;-29
2024/03/15 16:01:47;;;;;;;;;;;;;;;;;;5140051;27;19911;-28
2024/03/15 16:04:13;;;;;;;;;;;;;;;;;;5139849;27;19918;-28
2024/03/15 16:06:39;;;;;;;;;;;;;;;;;;5138753;27;19931;-32
2024/03/15 16:09:05;;;;;;;;;;;;;;;;;;5138510;28;19976;-29
2024/03/15 16:11:31;;;;;;;;;;;;;;;;;;5138927;28;19952;-28
2024/03/15 16:13:57;;;;;;;;;;;;;;;;;;5139290;28;19907;-29
2024/03/15 16:16:23;;;;;;;;;;;;;;;;;;5138757;28;19960;-29
2024/03/15 16:18:50;;;;;;;;;;;;;;;;;;5138446;28;20319;-30
2024/03/15 16:21:16;;;;;;;;;;;;;;;;;;5138081;28;20259;-29
2024/03/15 16:23:42;;;;;;;;;;;;;;;;;;5138482;28;19908;-28
2024/03/15 16:26:08;;;;;;;;;;;;;;;;;;5138488;28;19914;-28
2024/03/15 16:28:34;;;;;;;;;;;;;;;;;;5138392;28;19911;-28
2024/03/15 16:31:00;;;;;;;;;;;;;;;;;;5138306;28;19915;-31
2024/03/15 16:33:26;;;;;;;;;;;;;;;;;;5138577;28;19950;-28
2024/03/15 16:35:52;;;;;;;;;;;;;;;;;;5138532;28;19908;-28
2024/03/15 16:38:18;;;;;;;;;;;;;;;;;;5138159;28;19956;-29
2024/03/15 16:40:44;;;;;;;;;;;;;;;;;;5138652;28;20373;-28
2024/03/15 16:43:11;;;;;;;;;;;;;;;;;;5138250;28;19930;-29
2024/03/15 16:45:37;;;;;;;;;;;;;;;;;;5138126;28;20243;-31